This is the latest recevied weather packets stored in our database for station/object W7TRD. If no packets are shown the sender has not sent any weather packets the latest 10 day(s).
| Time | Temp. | Humidity | Pressure | Rain* | Wind** | Luminosity | Snow |
|---|---|---|---|---|---|---|---|
| 1788557085 | 20.56° C | 65% | 1013.9 hPa | 0 mm | - | 173 W/m² | - |
| 1788556780 | 21.11° C | 58% | 1014 hPa | 0 mm | - | 343 W/m² | - |
| 1788556480 | 21.67° C | 57% | 1013.7 hPa | 0 mm | - | 626 W/m² | - |
| 1788556176 | 21.67° C | 58% | 1013.8 hPa | 0 mm | - | 846 W/m² | - |
| 1788555875 | 21.67° C | 57% | 1013.6 hPa | 0 mm | - | 808 W/m² | - |
| 1788555571 | 21.11° C | 58% | 1013.9 hPa | 0 mm | - | 855 W/m² | - |
| 1788555266 | 21.11° C | 56% | 1013.8 hPa | 0 mm | - | 725 W/m² | - |
| 1788554964 | 21.67° C | 56% | 1013.9 hPa | 0 mm | - | 685 W/m² | - |
| 1788554659 | 20° C | 60% | 1013.7 hPa | 0 mm | - | 847 W/m² | - |
| 1788554355 | 20° C | 60% | 1013.7 hPa | 0 mm | - | 345 W/m² | - |
| 1788554052 | 20° C | 59% | 1014 hPa | 0 mm | - | 183 W/m² | - |
| 1788553746 | 19.44° C | 60% | 1013.8 hPa | 0 mm | - | 664 W/m² | - |
| 1788553443 | 18.89° C | 60% | 1013.7 hPa | 0 mm | - | 806 W/m² | - |
| 1788553138 | 18.89° C | 61% | 1013.8 hPa | 0 mm | - | 193 W/m² | - |
| 1788552833 | 20° C | 60% | 1013.8 hPa | 0 mm | - | 774 W/m² | - |
| 1788552528 | 19.44° C | 64% | 1013.9 hPa | 0 mm | - | 388 W/m² | - |
| 1788552227 | 20° C | 63% | 1014.1 hPa | 0 mm | - | 778 W/m² | - |
| 1788551922 | 20° C | 63% | 1014 hPa | 0 mm | - | 730 W/m² | - |
| 1788551620 | 19.44° C | 64% | 1013.9 hPa | 0 mm | - | 640 W/m² | - |
| 1788551325 | 19.44° C | 65% | 1014.2 hPa | 0 mm | - | 561 W/m² | - |
| 1788551015 | 18.89° C | 66% | 1014.1 hPa | 0 mm | - | 819 W/m² | - |
| 1788550710 | 18.89° C | 69% | 1014.2 hPa | 0 mm | - | 691 W/m² | - |
| 1788550405 | 19.44° C | 65% | 1014.3 hPa | 0 mm | - | 507 W/m² | - |
| 1788550100 | 18.89° C | 69% | 1014.4 hPa | 0 mm | - | 390 W/m² | - |
| 1788549795 | 18.33° C | 69% | 1014.3 hPa | 0 mm | - | 579 W/m² | - |
* Rain latest hour (hover to see other rain measurements)
** Current wind speed in m/s (hover to see current wind gust speed)